Time;durP1;ratioP1;P1;durP2;ratioP2;P2;SDS_P1;SDS_P2;PMS_P1;PMS_P2;Temp;Humidity;BMP_temperature;BMP_pressure;BME280_temperature;BME280_humidity;BME280_pressure;Samples;Min_cycle;Max_cycle;Signal;HPM_P1;HPM_P2
2021/08/22 00:00:29;;;;;;;7.33;6.57;;;18.90;99.90;;;;;;5052349;28;20213;-71
2021/08/22 00:02:54;;;;;;;7.60;6.83;;;18.90;99.90;;;;;;5037084;28;20418;-70
2021/08/22 00:05:20;;;;;;;9.97;7.00;;;18.90;99.90;;;;;;5032534;28;20174;-70
2021/08/22 00:07:46;;;;;;;7.70;6.00;;;18.90;99.90;;;;;;5035255;28;20215;-70
2021/08/22 00:10:12;;;;;;;7.37;6.23;;;18.90;99.90;;;;;;5052342;28;20640;-70
2021/08/22 00:12:38;;;;;;;7.23;6.00;;;18.90;99.90;;;;;;5052233;28;20219;-70
2021/08/22 00:15:04;;;;;;;7.67;6.17;;;18.90;99.90;;;;;;5052232;28;20489;-70
2021/08/22 00:17:30;;;;;;;7.47;6.60;;;18.90;99.90;;;;;;5052192;28;20405;-71
2021/08/22 00:19:55;;;;;;;5.10;4.70;;;18.80;99.90;;;;;;5052450;28;20880;-70
2021/08/22 00:22:21;;;;;;;7.00;5.80;;;18.80;99.90;;;;;;5052633;28;20565;-70
2021/08/22 00:24:46;;;;;;;6.70;5.70;;;18.80;99.90;;;;;;5051990;28;20179;-70
2021/08/22 00:27:12;;;;;;;5.93;5.33;;;18.80;99.90;;;;;;5052114;28;20187;-70
2021/08/22 00:29:37;;;;;;;6.13;5.47;;;18.80;99.90;;;;;;5052056;28;20160;-70
2021/08/22 00:32:04;;;;;;;5.37;4.87;;;18.80;99.90;;;;;;5043860;28;20614;-70
2021/08/22 00:34:30;;;;;;;5.70;5.20;;;18.80;99.90;;;;;;5032142;28;20161;-70
2021/08/22 00:36:56;;;;;;;5.77;5.23;;;18.80;99.90;;;;;;5032130;28;20774;-71
2021/08/22 00:39:24;;;;;;;5.90;5.30;;;18.70;99.90;;;;;;5032216;28;20164;-71
2021/08/22 00:41:49;;;;;;;5.73;5.23;;;18.80;99.90;;;;;;5035339;28;20190;-71
2021/08/22 00:44:15;;;;;;;4.83;4.43;;;18.70;99.90;;;;;;5052014;28;20403;-71
2021/08/22 00:46:40;;;;;;;4.73;4.30;;;18.70;99.90;;;;;;5052043;28;20191;-70
2021/08/22 00:49:07;;;;;;;6.07;4.73;;;18.70;99.90;;;;;;5052315;28;20247;-70
2021/08/22 00:51:34;;;;;;;5.43;4.93;;;18.70;99.90;;;;;;5052008;28;20165;-71
2021/08/22 00:53:59;;;;;;;5.83;4.77;;;18.70;99.90;;;;;;5051952;28;20394;-70
2021/08/22 00:56:25;;;;;;;4.90;4.20;;;18.70;99.90;;;;;;5051868;28;20474;-71
2021/08/22 00:58:50;;;;;;;7.73;5.00;;;18.60;99.90;;;;;;5051537;28;20200;-71
2021/08/22 01:01:20;;;;;;;5.73;4.70;;;18.70;99.90;;;;;;5052264;28;20239;-70
2021/08/22 01:03:52;;;;;;;5.03;4.43;;;18.70;99.90;;;;;;5051890;28;20179;-70
2021/08/22 01:09:17;;;;;;;4.13;3.67;;;18.60;99.90;;;;;;5090149;27;20510;-70
2021/08/22 01:11:44;;;;;;;4.70;4.30;;;18.60;99.90;;;;;;5090056;28;20405;-70
2021/08/22 01:14:12;;;;;;;5.83;4.00;;;18.60;99.90;;;;;;5090197;28;20862;-70
2021/08/22 01:16:43;;;;;;;3.93;3.60;;;18.60;99.90;;;;;;5089428;28;21004;-70
2021/08/22 01:19:49;;;;;;;3.53;3.23;;;18.60;99.90;;;;;;5089927;28;20425;-71
2021/08/22 01:22:18;;;;;;;4.27;3.70;;;18.60;99.90;;;;;;5077389;28;20450;-70
2021/08/22 01:24:45;;;;;;;4.67;4.03;;;18.50;99.90;;;;;;5089786;28;20925;-71
2021/08/22 01:27:12;;;;;;;3.53;3.23;;;18.50;99.90;;;;;;5089809;28;20452;-70
2021/08/22 01:29:44;;;;;;;4.23;3.47;;;18.50;99.90;;;;;;5089528;28;20503;-70
2021/08/22 01:32:12;;;;;;;4.70;3.80;;;18.40;99.90;;;;;;5080384;28;20417;-70
2021/08/22 01:34:39;;;;;;;4.03;3.60;;;18.40;99.90;;;;;;5087644;28;20421;-70
2021/08/22 01:37:05;;;;;;;5.10;3.40;;;18.40;99.90;;;;;;5089445;28;20504;-71
2021/08/22 01:39:32;;;;;;;6.27;3.70;;;18.30;99.90;;;;;;5089444;28;20397;-70
2021/08/22 01:41:58;;;;;;;5.20;3.73;;;18.30;99.90;;;;;;5089473;28;20397;-71
2021/08/22 01:44:24;;;;;;;4.83;3.80;;;18.20;99.90;;;;;;5089268;28;20403;-70
2021/08/22 01:46:51;;;;;;;4.13;3.73;;;18.20;99.90;;;;;;5089184;28;20393;-70
2021/08/22 01:49:19;;;;;;;4.60;3.70;;;18.20;99.90;;;;;;5089465;28;20407;-71
2021/08/22 01:51:46;;;;;;;3.90;3.50;;;18.10;99.90;;;;;;5088977;28;20931;-70
2021/08/22 01:54:11;;;;;;;4.33;3.50;;;18.10;99.90;;;;;;5089123;28;20412;-70
2021/08/22 01:56:38;;;;;;;3.57;2.90;;;18.10;99.90;;;;;;5089111;28;20390;-71
2021/08/22 01:59:04;;;;;;;4.43;3.50;;;18.00;99.90;;;;;;5089040;28;20239;-70
2021/08/22 02:01:30;;;;;;;3.47;3.17;;;18.00;99.90;;;;;;5089135;28;20874;-70
2021/08/22 02:04:06;;;;;;;3.50;3.20;;;18.00;99.90;;;;;;5076464;28;20176;-70
2021/08/22 02:06:47;;;;;;;3.40;3.10;;;17.90;99.90;;;;;;5049971;28;20430;-70
2021/08/22 02:09:15;;;;;;;3.23;2.73;;;18.00;99.90;;;;;;5088857;28;20420;-70
2021/08/22 02:11:45;;;;;;;4.23;3.17;;;18.00;99.90;;;;;;5088902;28;20890;-70
2021/08/22 02:14:14;;;;;;;4.13;3.60;;;18.00;99.90;;;;;;5088818;28;20898;-70
2021/08/22 02:16:44;;;;;;;4.10;3.57;;;18.00;99.90;;;;;;5088754;28;20396;-70
2021/08/22 02:19:10;;;;;;;2.43;2.23;;;18.00;99.90;;;;;;5083043;28;20392;-70
2021/08/22 02:21:38;;;;;;;2.47;2.27;;;18.00;99.90;;;;;;5075126;28;20459;-71
2021/08/22 02:24:05;;;;;;;2.77;2.57;;;18.00;99.90;;;;;;5073484;28;20175;-71
2021/08/22 02:26:31;;;;;;;2.97;2.60;;;18.00;99.90;;;;;;5075113;28;20386;-70
2021/08/22 02:28:58;;;;;;;4.40;3.23;;;18.10;99.90;;;;;;5074996;28;20447;-70
2021/08/22 02:31:27;;;;;;;2.90;2.50;;;18.10;99.90;;;;;;5074882;28;20416;-71
2021/08/22 02:33:53;;;;;;;4.37;3.17;;;18.10;99.90;;;;;;5070106;28;20420;-70
2021/08/22 02:36:19;;;;;;;3.43;2.60;;;18.10;99.90;;;;;;5054873;28;20395;-70
2021/08/22 02:38:47;;;;;;;3.40;2.50;;;18.10;99.90;;;;;;5055235;28;20445;-71
2021/08/22 02:41:13;;;;;;;4.70;2.90;;;18.00;99.90;;;;;;5055858;28;20219;-71
2021/08/22 02:43:39;;;;;;;3.90;2.77;;;18.00;99.90;;;;;;5054685;28;20901;-71
2021/08/22 02:46:06;;;;;;;3.73;3.03;;;18.00;99.90;;;;;;5054680;28;20631;-71
2021/08/22 02:48:33;;;;;;;2.87;2.67;;;18.10;99.90;;;;;;5054681;28;20434;-71
2021/08/22 02:50:58;;;;;;;6.23;3.37;;;18.10;99.90;;;;;;5054698;28;20477;-71
2021/08/22 02:53:24;;;;;;;4.90;4.03;;;18.10;99.90;;;;;;5055674;28;20827;-70
2021/08/22 02:55:50;;;;;;;5.53;3.00;;;18.10;99.90;;;;;;5054407;28;20144;-69
2021/08/22 02:58:15;;;;;;;8.47;5.30;;;18.10;99.90;;;;;;5055466;28;20184;-70
2021/08/22 03:00:41;;;;;;;5.37;4.83;;;18.20;99.90;;;;;;5054355;28;20161;-69
2021/08/22 03:03:06;;;;;;;4.93;4.43;;;18.10;99.90;;;;;;5054414;28;20181;-69
2021/08/22 03:05:32;;;;;;;9.50;5.90;;;18.10;99.90;;;;;;5040889;28;20183;-69
2021/08/22 03:07:57;;;;;;;7.63;6.30;;;18.10;99.90;;;;;;5034355;28;20757;-69
2021/08/22 03:10:23;;;;;;;8.97;6.83;;;18.10;99.90;;;;;;5034527;28;20159;-69
2021/08/22 03:12:49;;;;;;;17.63;8.00;;;18.10;99.90;;;;;;5034263;28;20167;-69
2021/08/22 03:15:14;;;;;;;7.67;6.57;;;18.10;99.90;;;;;;5042003;28;20262;-69
2021/08/22 03:17:40;;;;;;;8.30;7.50;;;18.20;99.90;;;;;;5054338;28;20163;-69
2021/08/22 03:20:06;;;;;;;8.93;8.03;;;18.20;99.90;;;;;;5054362;28;20196;-69
2021/08/22 03:22:33;;;;;;;9.93;8.93;;;18.10;99.90;;;;;;5054034;28;20156;-69
2021/08/22 03:24:59;;;;;;;10.63;9.53;;;18.20;99.90;;;;;;5054044;28;20397;-69
2021/08/22 03:27:25;;;;;;;12.00;10.50;;;18.20;99.90;;;;;;5053787;28;20544;-69
2021/08/22 03:29:50;;;;;;;15.53;10.47;;;18.20;99.90;;;;;;5053947;28;20431;-69
2021/08/22 03:32:16;;;;;;;11.50;10.40;;;18.20;99.90;;;;;;5054259;28;20207;-69
2021/08/22 03:34:41;;;;;;;13.03;10.10;;;18.20;99.90;;;;;;5053760;28;20168;-69
2021/08/22 03:37:07;;;;;;;11.33;10.20;;;18.20;99.90;;;;;;5053629;28;20582;-69
2021/08/22 03:39:33;;;;;;;12.20;10.60;;;18.20;99.90;;;;;;5053668;28;20171;-69
2021/08/22 03:41:59;;;;;;;10.13;9.10;;;18.20;99.90;;;;;;5053726;28;20177;-69
2021/08/22 03:44:24;;;;;;;11.30;9.10;;;18.20;99.90;;;;;;5053560;28;20391;-69
2021/08/22 03:46:50;;;;;;;10.03;8.90;;;18.20;99.90;;;;;;5053705;28;20152;-69
2021/08/22 03:49:15;;;;;;;9.10;8.30;;;18.20;99.90;;;;;;5054645;28;20176;-69
2021/08/22 03:51:41;;;;;;;9.50;8.60;;;18.20;99.90;;;;;;5053706;28;20171;-70
2021/08/22 03:54:06;;;;;;;9.73;8.73;;;18.20;99.90;;;;;;5053354;28;20152;-69
2021/08/22 03:56:32;;;;;;;9.60;8.60;;;18.20;99.90;;;;;;5053328;28;20188;-69
2021/08/22 03:58:58;;;;;;;9.90;7.70;;;18.20;99.90;;;;;;5053199;28;20668;-69
2021/08/22 04:01:23;;;;;;;13.37;8.97;;;18.20;99.90;;;;;;5053506;28;20164;-69
2021/08/22 04:03:50;;;;;;;9.47;8.50;;;18.20;99.90;;;;;;5053415;28;20187;-69
2021/08/22 04:06:16;;;;;;;11.10;8.40;;;18.20;99.90;;;;;;5041457;28;20186;-70
2021/08/22 04:08:42;;;;;;;9.37;8.40;;;18.20;99.90;;;;;;5052931;28;20457;-70
2021/08/22 04:11:09;;;;;;;10.13;8.67;;;18.20;99.90;;;;;;5053066;28;20430;-69
2021/08/22 04:13:35;;;;;;;9.13;7.47;;;18.20;99.90;;;;;;5053072;28;20577;-69
2021/08/22 04:16:01;;;;;;;10.53;7.73;;;18.20;99.90;;;;;;5053603;28;20489;-69
2021/08/22 04:18:26;;;;;;;8.83;8.00;;;18.20;99.90;;;;;;5052963;28;20945;-69
2021/08/22 04:20:52;;;;;;;11.33;8.80;;;18.20;99.90;;;;;;5052936;28;20485;-69
2021/08/22 04:23:18;;;;;;;10.43;9.30;;;18.20;99.90;;;;;;5053960;28;20264;-69
2021/08/22 04:25:45;;;;;;;10.50;8.90;;;18.20;99.90;;;;;;5052866;28;20164;-69
2021/08/22 04:28:10;;;;;;;13.23;11.83;;;18.20;99.90;;;;;;5053751;28;20260;-69
2021/08/22 04:30:36;;;;;;;13.57;10.97;;;18.20;99.90;;;;;;5053435;28;20402;-69
2021/08/22 04:33:01;;;;;;;12.40;9.80;;;18.20;99.90;;;;;;5052836;28;20167;-69
2021/08/22 04:35:28;;;;;;;10.93;9.87;;;18.20;99.90;;;;;;5052331;28;20175;-69
2021/08/22 04:37:54;;;;;;;10.97;9.87;;;18.20;99.90;;;;;;5032714;28;20156;-70
2021/08/22 04:40:19;;;;;;;9.90;8.90;;;18.20;99.90;;;;;;5041337;28;20441;-69
2021/08/22 04:42:45;;;;;;;10.23;9.23;;;18.20;99.90;;;;;;5052943;28;20152;-69
2021/08/22 04:45:11;;;;;;;10.40;9.17;;;18.20;99.90;;;;;;5052868;28;20240;-69
2021/08/22 04:47:36;;;;;;;9.90;8.30;;;18.20;99.90;;;;;;5052283;28;20253;-69
2021/08/22 04:50:02;;;;;;;9.00;7.53;;;18.20;99.90;;;;;;5052508;28;20243;-69
2021/08/22 04:52:28;;;;;;;11.20;8.63;;;18.10;99.90;;;;;;5052532;28;20206;-69
2021/08/22 04:54:53;;;;;;;9.40;8.40;;;18.10;99.90;;;;;;5052603;28;20391;-69
2021/08/22 04:57:19;;;;;;;10.97;7.73;;;18.10;99.90;;;;;;5053474;28;20519;-69
2021/08/22 04:59:45;;;;;;;8.93;7.80;;;18.10;99.90;;;;;;5052595;28;20201;-69
2021/08/22 05:02:10;;;;;;;8.30;6.40;;;18.10;99.90;;;;;;5052571;28;20218;-69
2021/08/22 05:04:36;;;;;;;10.00;7.07;;;18.10;99.90;;;;;;5052238;28;20249;-70
2021/08/22 05:07:01;;;;;;;8.90;7.07;;;18.10;99.90;;;;;;5052082;28;20205;-69
2021/08/22 05:09:27;;;;;;;9.13;8.33;;;18.10;99.90;;;;;;5052454;28;20152;-69
2021/08/22 05:11:53;;;;;;;9.67;8.20;;;18.20;99.90;;;;;;5052454;28;20221;-69
2021/08/22 05:14:18;;;;;;;9.80;8.43;;;18.20;99.90;;;;;;5053778;28;20178;-69
2021/08/22 05:16:44;;;;;;;10.50;8.47;;;18.20;99.90;;;;;;5052364;28;20159;-69
2021/08/22 05:19:09;;;;;;;8.53;7.63;;;18.20;99.90;;;;;;5052271;28;20191;-69
2021/08/22 05:21:35;;;;;;;10.07;8.13;;;18.20;99.90;;;;;;5052209;28;20160;-70
2021/08/22 05:24:00;;;;;;;11.57;8.30;;;18.20;99.90;;;;;;5052413;28;20157;-69
2021/08/22 05:26:26;;;;;;;11.30;8.80;;;18.20;99.90;;;;;;5052761;28;20166;-69
2021/08/22 05:28:52;;;;;;;8.83;7.93;;;18.20;99.90;;;;;;5052599;28;20246;-69
2021/08/22 05:31:18;;;;;;;16.60;8.80;;;18.20;99.90;;;;;;5053747;28;20176;-69
2021/08/22 05:33:44;;;;;;;11.17;8.77;;;18.20;99.90;;;;;;5052052;28;20477;-69
2021/08/22 05:36:18;;;;;;;10.20;7.90;;;18.10;99.90;;;;;;5045979;28;20179;-69
2021/08/22 05:38:45;;;;;;;9.43;7.80;;;18.20;99.90;;;;;;5032926;28;20953;-69
2021/08/22 05:41:10;;;;;;;9.20;7.77;;;18.20;99.90;;;;;;5032629;28;20815;-69
2021/08/22 05:43:36;;;;;;;13.27;7.83;;;18.20;99.90;;;;;;5032401;28;20404;-70
2021/08/22 05:46:01;;;;;;;10.70;8.10;;;18.20;99.90;;;;;;5032112;28;20157;-69
2021/08/22 05:48:27;;;;;;;12.13;8.93;;;18.20;99.90;;;;;;5041401;28;20203;-69
2021/08/22 05:50:53;;;;;;;11.33;8.60;;;18.20;99.90;;;;;;5052155;28;20526;-69
2021/08/22 05:53:18;;;;;;;11.33;8.83;;;18.20;99.90;;;;;;5052068;28;20266;-69
2021/08/22 05:55:44;;;;;;;11.87;9.00;;;18.30;99.90;;;;;;5055526;28;20168;-69
2021/08/22 05:58:09;;;;;;;10.73;8.20;;;18.30;99.90;;;;;;5055674;28;20190;-69
2021/08/22 06:00:37;;;;;;;13.20;9.10;;;18.30;99.90;;;;;;5056111;28;20175;-69
2021/08/22 06:03:03;;;;;;;11.60;9.20;;;18.30;99.90;;;;;;5055867;28;20264;-69
2021/08/22 06:05:29;;;;;;;10.10;7.63;;;18.40;99.90;;;;;;5056544;28;20768;-69
2021/08/22 06:07:54;;;;;;;11.53;7.80;;;18.40;99.90;;;;;;5041421;28;20489;-69
2021/08/22 06:10:20;;;;;;;10.00;8.80;;;18.40;99.90;;;;;;5035816;28;20168;-69
2021/08/22 06:12:46;;;;;;;12.47;8.83;;;18.40;99.90;;;;;;5035838;28;20533;-69
2021/08/22 06:15:12;;;;;;;14.73;9.60;;;18.40;99.90;;;;;;5035625;28;20234;-69
2021/08/22 06:17:37;;;;;;;11.97;8.20;;;18.40;99.90;;;;;;5035474;28;20407;-69
2021/08/22 06:20:04;;;;;;;10.70;7.90;;;18.40;99.90;;;;;;5035373;28;20161;-69
2021/08/22 06:22:29;;;;;;;11.93;7.80;;;18.50;99.90;;;;;;5045256;28;20241;-69
2021/08/22 06:24:55;;;;;;;12.80;7.77;;;18.40;99.90;;;;;;5055537;28;20954;-69
2021/08/22 06:27:20;;;;;;;9.57;7.20;;;18.40;99.90;;;;;;5055397;28;20199;-69
2021/08/22 06:29:46;;;;;;;10.57;8.07;;;18.50;99.90;;;;;;5054918;28;20172;-69
2021/08/22 06:32:11;;;;;;;11.43;8.70;;;18.50;99.90;;;;;;5055265;28;20180;-69
2021/08/22 06:34:37;;;;;;;8.87;7.33;;;18.60;99.90;;;;;;5054884;28;20176;-69
2021/08/22 06:37:03;;;;;;;11.87;8.13;;;18.70;99.90;;;;;;5054830;28;20182;-69
2021/08/22 06:39:28;;;;;;;14.43;8.70;;;18.80;99.90;;;;;;5056420;28;20634;-69
2021/08/22 06:41:54;;;;;;;10.33;8.07;;;18.90;99.90;;;;;;5055043;28;20645;-69
2021/08/22 06:44:19;;;;;;;10.30;8.07;;;18.90;99.90;;;;;;5054825;28;20518;-69
2021/08/22 06:46:45;;;;;;;9.80;8.33;;;18.90;99.90;;;;;;5054711;28;20180;-69
2021/08/22 06:49:11;;;;;;;12.20;8.70;;;19.00;99.90;;;;;;5054691;28;20196;-69
2021/08/22 06:51:36;;;;;;;14.80;9.30;;;18.90;99.90;;;;;;5054758;28;20561;-69
2021/08/22 06:54:02;;;;;;;11.30;9.43;;;18.90;99.90;;;;;;5054941;28;20578;-69
2021/08/22 06:56:27;;;;;;;11.23;9.10;;;18.90;99.90;;;;;;5056032;28;20183;-69
2021/08/22 06:58:53;;;;;;;14.23;10.20;;;18.90;99.90;;;;;;5054517;28;20557;-69
2021/08/22 07:01:19;;;;;;;14.27;9.67;;;18.90;99.90;;;;;;5054524;28;20527;-70
2021/08/22 07:03:45;;;;;;;14.57;10.63;;;18.90;99.90;;;;;;5054344;28;20175;-69
2021/08/22 07:06:10;;;;;;;10.93;8.77;;;19.00;99.90;;;;;;5054254;28;20168;-69
2021/08/22 07:08:36;;;;;;;14.37;10.37;;;19.00;99.90;;;;;;5034832;28;20821;-69
2021/08/22 07:11:01;;;;;;;12.60;9.93;;;19.10;99.90;;;;;;5034908;28;20606;-69
2021/08/22 07:13:27;;;;;;;14.20;10.90;;;19.20;99.90;;;;;;5043959;28;20243;-69
2021/08/22 07:15:52;;;;;;;13.40;9.40;;;19.20;99.90;;;;;;5054216;28;20170;-69
2021/08/22 07:18:18;;;;;;;12.00;9.47;;;19.30;99.90;;;;;;5054241;28;20618;-70
2021/08/22 07:20:43;;;;;;;10.03;8.77;;;19.30;99.90;;;;;;5054292;28;20171;-69
2021/08/22 07:23:09;;;;;;;14.70;8.73;;;19.40;99.90;;;;;;5054437;28;20152;-70
2021/08/22 07:25:34;;;;;;;10.60;8.90;;;19.40;99.90;;;;;;5054321;28;20581;-70
2021/08/22 07:28:00;;;;;;;8.77;7.67;;;19.50;99.90;;;;;;5053873;28;20242;-70
2021/08/22 07:30:26;;;;;;;10.77;8.80;;;19.60;99.90;;;;;;5054901;28;20179;-70
2021/08/22 07:32:53;;;;;;;11.10;7.80;;;19.60;99.90;;;;;;5054051;28;20140;-70
2021/08/22 07:35:18;;;;;;;8.37;7.57;;;19.70;99.90;;;;;;5053920;28;20397;-69
2021/08/22 07:37:44;;;;;;;8.50;7.70;;;19.70;99.90;;;;;;5053858;28;20891;-69
2021/08/22 07:40:10;;;;;;;8.63;7.27;;;19.80;99.90;;;;;;5034121;28;20172;-69
2021/08/22 07:42:37;;;;;;;9.33;7.47;;;19.80;99.90;;;;;;5033767;28;20153;-69
2021/08/22 07:45:03;;;;;;;8.83;7.23;;;19.80;99.90;;;;;;5033976;28;20534;-70
2021/08/22 07:47:28;;;;;;;8.40;7.00;;;19.80;99.90;;;;;;5043332;28;20454;-70
2021/08/22 07:49:54;;;;;;;7.47;6.30;;;19.90;99.90;;;;;;5053555;28;20907;-70
2021/08/22 07:52:22;;;;;;;9.07;6.60;;;20.00;99.90;;;;;;5053813;28;20159;-69
2021/08/22 07:54:48;;;;;;;6.60;5.70;;;20.10;99.90;;;;;;5053617;28;20234;-70
2021/08/22 07:57:16;;;;;;;6.63;6.00;;;20.10;99.90;;;;;;5053409;28;20397;-70
2021/08/22 07:59:42;;;;;;;7.63;5.93;;;20.10;99.90;;;;;;5053395;28;20488;-70
2021/08/22 08:02:07;;;;;;;6.23;5.63;;;20.10;99.90;;;;;;5053359;28;20390;-70
2021/08/22 08:04:33;;;;;;;7.93;6.33;;;20.00;99.90;;;;;;5054391;28;20184;-70
2021/08/22 08:06:58;;;;;;;7.20;6.10;;;20.00;99.90;;;;;;5053589;28;20507;-70
2021/08/22 08:09:24;;;;;;;10.27;7.27;;;19.90;99.90;;;;;;5053470;28;20645;-70
2021/08/22 08:11:49;;;;;;;6.83;6.23;;;19.80;99.90;;;;;;5053206;28;20164;-70
2021/08/22 08:14:15;;;;;;;9.67;6.40;;;19.80;99.90;;;;;;5053194;28;20164;-70
2021/08/22 08:16:41;;;;;;;9.00;7.70;;;19.80;99.90;;;;;;5052744;28;20173;-70
2021/08/22 08:19:06;;;;;;;7.63;6.73;;;19.80;99.90;;;;;;5053227;28;20164;-70
2021/08/22 08:21:32;;;;;;;9.13;6.83;;;19.80;99.90;;;;;;5054402;28;20653;-70
2021/08/22 08:23:57;;;;;;;7.70;6.30;;;19.80;99.90;;;;;;5053170;28;20163;-69
2021/08/22 08:26:23;;;;;;;9.07;8.17;;;19.70;99.90;;;;;;5052948;28;20160;-70
2021/08/22 08:28:48;;;;;;;8.53;7.20;;;19.70;99.90;;;;;;5052905;28;20196;-70
2021/08/22 08:31:14;;;;;;;8.10;7.30;;;19.60;99.90;;;;;;5052731;28;20184;-70
2021/08/22 08:33:40;;;;;;;9.37;8.03;;;19.60;99.90;;;;;;5053187;28;20564;-70
2021/08/22 08:36:05;;;;;;;8.27;7.03;;;19.50;99.90;;;;;;5053048;28;20641;-70
2021/08/22 08:38:31;;;;;;;6.83;6.20;;;19.50;99.90;;;;;;5059522;28;20528;-70
2021/08/22 08:41:00;;;;;;;8.33;7.20;;;19.50;99.90;;;;;;5072615;28;20155;-70
2021/08/22 08:43:25;;;;;;;8.90;7.50;;;19.50;99.90;;;;;;5072710;28;20637;-70
2021/08/22 08:46:13;;;;;;;8.33;7.47;;;19.60;99.90;;;;;;5072651;28;20552;-70
2021/08/22 08:56:35;;;;;;;8.17;6.90;;;19.90;99.90;;;;;;5073225;27;21049;-69
2021/08/22 08:59:00;;;;;;;9.20;5.87;;;20.00;99.90;;;;;;5069807;28;20491;-69
2021/08/22 09:01:26;;;;;;;7.73;6.53;;;20.00;99.90;;;;;;5069950;28;20398;-69
2021/08/22 09:04:16;;;;;;;6.23;5.43;;;19.90;99.90;;;;;;5069952;28;20160;-69
2021/08/22 09:07:21;;;;;;;7.33;6.50;;;19.90;99.90;;;;;;5068916;28;20579;-69
2021/08/22 09:10:27;;;;;;;6.80;6.17;;;19.90;99.90;;;;;;5047440;28;20471;-69
2021/08/22 09:18:57;;;;;;;7.27;6.60;;;19.90;99.90;;;;;;5151842;27;20507;-69
2021/08/22 09:27:31;;;;;;;7.50;5.87;;;20.00;99.90;;;;;;5090106;27;20533;-70
2021/08/22 09:30:36;;;;;;;7.40;5.37;;;20.30;99.90;;;;;;5077331;28;20492;-70
2021/08/22 09:33:42;;;;;;;6.13;5.53;;;20.40;99.90;;;;;;5068897;28;20808;-70
2021/08/22 09:42:45;;;;;;;6.00;4.90;;;20.60;99.90;;;;;;5069936;28;20963;-70
2021/08/22 09:45:50;;;;;;;6.23;5.67;;;21.00;99.90;;;;;;5068901;28;20492;-70
2021/08/22 09:48:56;;;;;;;6.90;6.20;;;21.20;99.90;;;;;;5049238;28;20391;-70
2021/08/22 09:52:01;;;;;;;6.00;5.40;;;21.50;99.90;;;;;;5049124;28;20860;-70
2021/08/22 09:58:04;;;;;;;5.87;5.40;;;21.70;99.90;;;;;;5069867;28;20622;-70
2021/08/22 10:06:28;;;;;;;6.33;5.73;;;21.70;99.90;;;;;;5069969;28;20523;-70
2021/08/22 10:09:16;;;;;;;6.30;5.80;;;21.40;99.90;;;;;;5069034;28;20914;-70
2021/08/22 10:14:26;;;;;;;6.20;5.60;;;21.40;99.90;;;;;;5090101;28;20515;-70
2021/08/22 10:16:52;;;;;;;7.00;5.30;;;21.30;99.90;;;;;;5093705;28;20748;-70
2021/08/22 10:19:24;;;;;;;6.60;5.27;;;21.30;99.90;;;;;;5091033;28;20447;-70
2021/08/22 10:22:12;;;;;;;5.50;5.00;;;21.40;99.90;;;;;;5070804;28;20402;-70
2021/08/22 10:35:38;;;;;;;3.87;3.10;;;22.00;99.90;;;;;;5090444;28;20507;-70
2021/08/22 10:38:25;;;;;;;5.57;4.20;;;22.40;99.90;;;;;;5078712;28;20401;-70
2021/08/22 10:40:52;;;;;;;4.20;3.67;;;22.50;99.90;;;;;;5089107;28;20381;-70
2021/08/22 10:45:55;;;;;;;4.10;3.03;;;22.60;99.90;;;;;;5070927;28;20550;-70
2021/08/22 10:53:37;;;;;;;4.10;3.70;;;22.80;99.90;;;;;;5109348;27;20599;-69
2021/08/22 10:59:02;;;;;;;4.30;3.23;;;22.70;99.90;;;;;;5090249;28;20528;-70
2021/08/22 11:01:29;;;;;;;4.27;3.53;;;22.80;99.90;;;;;;5090359;28;20422;-70
2021/08/22 11:07:02;;;;;;;4.57;3.17;;;22.90;99.90;;;;;;5069965;28;20508;-69
2021/08/22 11:09:44;;;;;;;4.20;3.10;;;22.90;99.90;;;;;;5065402;28;20423;-70
2021/08/22 11:12:32;;;;;;;3.20;2.87;;;22.90;99.90;;;;;;5051001;28;20422;-70
2021/08/22 11:15:00;;;;;;;3.37;3.10;;;22.90;99.90;;;;;;5049311;28;20455;-70
2021/08/22 11:17:27;;;;;;;6.57;3.37;;;22.80;99.90;;;;;;5050267;28;20394;-70
2021/08/22 11:19:53;;;;;;;3.60;3.30;;;22.90;99.90;;;;;;5049546;28;20465;-70
2021/08/22 11:22:21;;;;;;;4.80;3.10;;;22.90;99.90;;;;;;5049619;28;20398;-70
2021/08/22 11:24:49;;;;;;;3.50;3.00;;;22.90;99.90;;;;;;5049513;28;20439;-70
2021/08/22 11:27:19;;;;;;;3.40;2.97;;;23.00;99.90;;;;;;5049885;28;20783;-70
2021/08/22 11:32:50;;;;;;;3.13;2.77;;;23.10;99.90;;;;;;5070066;28;20530;-70
2021/08/22 11:35:17;;;;;;;3.93;2.53;;;23.10;99.90;;;;;;5069761;28;20382;-70
2021/08/22 11:37:45;;;;;;;3.40;3.10;;;23.10;99.90;;;;;;5069690;28;20435;-70
2021/08/22 11:40:13;;;;;;;7.30;2.70;;;23.20;99.90;;;;;;5069580;28;20394;-70
2021/08/22 11:42:44;;;;;;;3.17;2.87;;;23.20;99.90;;;;;;5050011;28;20742;-70
2021/08/22 11:45:13;;;;;;;5.07;2.70;;;23.20;99.90;;;;;;5051152;28;20967;-70
2021/08/22 11:47:39;;;;;;;3.17;2.50;;;23.30;99.90;;;;;;5049642;28;20390;-70
2021/08/22 11:50:07;;;;;;;4.10;2.97;;;23.30;99.90;;;;;;5049500;28;20581;-70
2021/08/22 11:52:35;;;;;;;3.50;2.90;;;23.30;99.90;;;;;;5049456;28;20986;-70
2021/08/22 11:55:03;;;;;;;2.77;2.07;;;23.30;99.90;;;;;;5049701;28;20849;-70
2021/08/22 11:57:29;;;;;;;3.70;2.83;;;23.30;99.90;;;;;;5049445;28;20747;-70
2021/08/22 12:03:00;;;;;;;5.03;2.70;;;23.40;99.90;;;;;;5060111;28;20510;-69
2021/08/22 12:05:27;;;;;;;4.40;2.83;;;23.40;99.90;;;;;;5049855;28;20395;-69
2021/08/22 12:08:12;;;;;;;5.53;2.60;;;23.40;99.90;;;;;;5049974;28;20484;-70
2021/08/22 12:10:40;;;;;;;3.10;2.30;;;23.40;99.90;;;;;;5048725;28;20472;-70
2021/08/22 12:13:15;;;;;;;3.80;2.67;;;23.30;99.90;;;;;;5049746;28;20418;-70
2021/08/22 12:15:40;;;;;;;3.40;2.60;;;23.30;99.90;;;;;;5049805;28;20812;-70
2021/08/22 12:23:40;;;;;;;2.50;2.30;;;23.00;99.90;;;;;;5069860;28;20630;-70
2021/08/22 12:29:07;;;;;;;2.83;2.30;;;22.90;99.90;;;;;;5070409;28;20539;-70
2021/08/22 12:31:37;;;;;;;4.47;3.20;;;22.80;99.90;;;;;;5069785;28;20398;-70
2021/08/22 12:34:09;;;;;;;4.10;1.93;;;22.70;99.90;;;;;;5069787;28;20490;-70
2021/08/22 12:36:40;;;;;;;2.80;1.93;;;22.60;99.90;;;;;;5060780;28;20407;-70
2021/08/22 12:39:07;;;;;;;2.97;2.58;;;22.60;99.90;;;;;;5049550;28;20445;-70
2021/08/22 12:44:14;;;;;;;3.20;2.40;;;22.60;99.90;;;;;;5070286;28;20981;-70
2021/08/22 12:46:40;;;;;;;5.10;1.80;;;22.70;99.90;;;;;;5070171;28;20796;-70
2021/08/22 12:49:07;;;;;;;2.63;2.27;;;22.70;99.90;;;;;;5069748;28;20390;-70
2021/08/22 12:51:36;;;;;;;3.10;2.80;;;22.80;99.90;;;;;;5069769;28;20480;-70
2021/08/22 12:54:02;;;;;;;2.37;2.13;;;22.80;99.90;;;;;;5057351;28;20422;-70
2021/08/22 12:56:28;;;;;;;3.63;2.57;;;22.90;99.90;;;;;;5049953;28;20505;-70
2021/08/22 12:58:54;;;;;;;3.67;3.17;;;23.00;99.90;;;;;;5049844;28;20426;-70
2021/08/22 13:01:21;;;;;;;2.40;2.20;;;23.10;99.90;;;;;;5049516;28;20164;-70
2021/08/22 13:03:47;;;;;;;3.20;2.47;;;23.30;99.90;;;;;;5049222;28;20443;-70
2021/08/22 13:06:13;;;;;;;4.10;2.70;;;23.40;99.90;;;;;;5049467;28;20806;-70
2021/08/22 13:08:38;;;;;;;3.10;2.80;;;23.50;99.90;;;;;;5049510;28;20401;-70
2021/08/22 13:11:04;;;;;;;3.33;2.97;;;23.60;99.90;;;;;;5050658;28;20188;-70
2021/08/22 13:13:30;;;;;;;5.47;4.00;;;23.60;99.90;;;;;;5064953;28;20178;-70
2021/08/22 13:15:57;;;;;;;3.07;2.63;;;23.60;99.90;;;;;;5069252;28;20794;-70
2021/08/22 13:18:23;;;;;;;2.80;2.50;;;23.60;99.90;;;;;;5069347;28;20171;-70
2021/08/22 13:20:49;;;;;;;3.40;2.53;;;23.60;99.90;;;;;;5069228;28;20409;-70
2021/08/22 13:23:15;;;;;;;3.97;2.20;;;23.60;99.90;;;;;;5069079;28;20667;-70
2021/08/22 13:25:41;;;;;;;2.60;1.83;;;23.60;99.90;;;;;;5069203;28;20400;-70
2021/08/22 13:28:07;;;;;;;3.80;2.30;;;23.60;99.90;;;;;;5067583;28;20511;-70
2021/08/22 13:30:32;;;;;;;3.57;2.03;;;23.60;99.90;;;;;;5068936;28;20571;-70
2021/08/22 13:32:58;;;;;;;2.33;2.10;;;23.60;99.90;;;;;;5068968;28;20401;-70
2021/08/22 13:35:24;;;;;;;3.20;2.03;;;23.50;99.90;;;;;;5068942;28;20168;-70
2021/08/22 13:37:51;;;;;;;2.97;2.67;;;23.50;99.90;;;;;;5068833;28;20171;-70
2021/08/22 13:40:16;;;;;;;2.90;1.80;;;23.60;99.90;;;;;;5068620;28;20509;-70
2021/08/22 13:42:42;;;;;;;2.30;1.97;;;23.60;99.90;;;;;;5054680;28;20560;-70
2021/08/22 13:45:08;;;;;;;2.73;1.90;;;23.60;99.90;;;;;;5049914;28;20183;-71
2021/08/22 13:47:34;;;;;;;3.17;1.83;;;23.60;99.90;;;;;;5048694;28;20584;-70
2021/08/22 13:50:00;;;;;;;3.30;2.00;;;23.60;99.90;;;;;;5048782;28;20406;-70
2021/08/22 13:52:27;;;;;;;1.87;1.77;;;23.60;99.90;;;;;;5048668;28;20395;-70
2021/08/22 13:54:53;;;;;;;3.10;2.80;;;23.50;99.90;;;;;;5039478;28;20172;-70
2021/08/22 13:57:19;;;;;;;4.87;2.87;;;23.50;99.90;;;;;;5035547;28;20398;-70
2021/08/22 13:59:45;;;;;;;2.97;2.47;;;23.50;99.90;;;;;;5035041;28;20223;-70
2021/08/22 14:02:10;;;;;;;3.23;2.80;;;23.40;99.90;;;;;;5036307;28;20200;-70
2021/08/22 14:04:36;;;;;;;5.10;2.70;;;23.40;99.90;;;;;;5035407;28;20168;-70
2021/08/22 14:07:01;;;;;;;3.77;2.43;;;23.30;99.90;;;;;;5035382;28;20164;-71
2021/08/22 14:09:27;;;;;;;3.30;1.90;;;23.20;99.90;;;;;;5035177;28;20161;-70